createdAt,value
2018-05-03T00:00:42.167Z,84.20
2018-05-03T00:03:16.703Z,84.30
2018-05-03T00:05:50.456Z,84.30
2018-05-03T00:08:25.022Z,84.20
2018-05-03T00:10:58.744Z,84.10
2018-05-03T00:13:32.459Z,84.30
2018-05-03T00:16:06.308Z,84.40
2018-05-03T00:18:40.857Z,84.30
2018-05-03T00:21:15.411Z,84.40
2018-05-03T00:23:49.240Z,84.30
2018-05-03T00:26:23.100Z,85.00
2018-05-03T00:28:57.652Z,85.90
2018-05-03T00:31:31.336Z,85.80
2018-05-03T00:34:04.980Z,86.20
2018-05-03T00:36:38.600Z,86.10
2018-05-03T00:39:13.076Z,86.40
2018-05-03T00:41:47.691Z,86.10
2018-05-03T00:44:22.297Z,86.80
2018-05-03T00:46:55.963Z,86.20
2018-05-03T00:49:30.663Z,86.80
2018-05-03T00:52:04.510Z,86.70
2018-05-03T00:54:48.245Z,86.40
2018-05-03T00:57:21.984Z,85.70
2018-05-03T00:59:55.743Z,85.30
2018-05-03T01:02:29.522Z,84.10
2018-05-03T01:05:03.212Z,85.30
2018-05-03T01:07:36.989Z,85.90
2018-05-03T01:10:11.657Z,89.50
2018-05-03T01:12:47.408Z,89.30
2018-05-03T01:15:21.203Z,89.40
2018-05-03T01:17:55.075Z,90.50
2018-05-03T01:20:29.701Z,92.30
2018-05-03T01:23:03.392Z,92.00
2018-05-03T01:25:38.691Z,91.60
2018-05-03T01:28:12.500Z,91.60
2018-05-03T01:30:47.100Z,91.80
2018-05-03T01:33:20.780Z,91.80
2018-05-03T01:36:06.419Z,91.90
2018-05-03T01:38:40.915Z,90.50
2018-05-03T01:41:14.672Z,90.50
2018-05-03T01:43:48.444Z,91.40
2018-05-03T01:46:22.140Z,91.50
2018-05-03T01:48:56.750Z,90.60
2018-05-03T01:51:30.580Z,90.60
2018-05-03T01:54:04.301Z,90.80
2018-05-03T01:56:38.133Z,90.80
2018-05-03T01:59:12.031Z,90.80
2018-05-03T02:01:45.798Z,90.60
2018-05-03T02:04:19.432Z,90.50
2018-05-03T02:06:54.016Z,88.40
2018-05-03T02:09:27.659Z,88.40
2018-05-03T02:12:01.452Z,89.20
2018-05-03T02:14:36.060Z,88.60
2018-05-03T02:17:10.679Z,88.00
2018-05-03T02:19:44.416Z,87.90
2018-05-03T02:22:19.021Z,88.60
2018-05-03T02:24:53.629Z,89.60
2018-05-03T02:27:27.449Z,88.80
2018-05-03T02:30:01.852Z,89.40
2018-05-03T02:32:35.561Z,89.30
2018-05-03T02:35:09.379Z,89.30
2018-05-03T02:37:43.040Z,89.20
2018-05-03T02:40:16.740Z,89.50
2018-05-03T02:42:50.424Z,89.60
2018-05-03T02:45:24.332Z,88.80
2018-05-03T02:47:58.121Z,90.10
2018-05-03T02:50:31.941Z,90.00
2018-05-03T02:53:05.722Z,90.00
2018-05-03T02:55:39.550Z,89.80
2018-05-03T02:58:26.126Z,89.70
2018-05-03T03:01:17.784Z,89.70
2018-05-03T03:04:09.459Z,88.20
2018-05-03T03:06:58.347Z,86.50
2018-05-03T03:13:06.857Z,85.60
2018-05-03T03:16:09.181Z,86.20
2018-05-03T03:19:00.624Z,86.90
2018-05-03T03:21:52.253Z,85.60
2018-05-03T03:24:38.685Z,84.60
2018-05-03T03:27:30.295Z,84.60
2018-05-03T03:30:16.300Z,84.70
2018-05-03T03:33:03.701Z,84.10
2018-05-03T03:38:46.068Z,83.40
2018-05-03T03:41:31.832Z,84.00
2018-05-03T03:44:17.512Z,81.90
2018-05-03T03:46:52.135Z,81.60
2018-05-03T03:49:25.874Z,80.50
2018-05-03T03:51:59.685Z,81.60
2018-05-03T03:54:34.306Z,80.50
2018-05-03T03:57:08.891Z,80.40
2018-05-03T03:59:42.600Z,80.40
2018-05-03T04:02:16.296Z,80.10
2018-05-03T04:04:50.839Z,80.10
2018-05-03T04:07:24.709Z,80.40
2018-05-03T04:09:58.377Z,79.70
2018-05-03T04:12:32.279Z,78.80
2018-05-03T04:15:06.180Z,79.30
2018-05-03T04:17:52.012Z,78.20
2018-05-03T04:20:39.835Z,77.80
2018-05-03T04:23:21.485Z,77.90
2018-05-03T04:26:03.876Z,77.10
2018-05-03T04:28:37.535Z,77.10
2018-05-03T04:31:11.460Z,75.20
2018-05-03T04:33:45.227Z,76.50
2018-05-03T04:36:18.936Z,75.80
2018-05-03T04:38:52.741Z,76.30
2018-05-03T04:41:26.416Z,74.50
2018-05-03T04:44:00.334Z,74.60
2018-05-03T04:46:34.136Z,74.00
2018-05-03T04:49:08.008Z,75.00
2018-05-03T04:51:41.798Z,74.70
2018-05-03T04:54:15.416Z,73.70
2018-05-03T04:56:49.965Z,73.00
2018-05-03T04:59:23.690Z,72.80
2018-05-03T05:01:57.888Z,72.60
2018-05-03T05:04:32.395Z,72.80
2018-05-03T05:07:08.500Z,72.60
2018-05-03T05:09:42.896Z,73.20
2018-05-03T05:12:16.600Z,73.20
2018-05-03T05:14:50.329Z,73.80
2018-05-03T05:17:24.175Z,73.70
2018-05-03T05:19:58.704Z,74.80
2018-05-03T05:22:32.540Z,74.70
2018-05-03T05:25:07.180Z,74.00
2018-05-03T05:27:41.001Z,73.80
2018-05-03T05:30:15.469Z,75.20
2018-05-03T05:32:49.531Z,75.20
2018-05-03T05:35:23.311Z,75.30
2018-05-03T05:37:57.149Z,75.60
2018-05-03T05:40:30.885Z,75.40
2018-05-03T05:43:04.641Z,74.10
2018-05-03T05:45:38.560Z,74.20
2018-05-03T05:48:12.907Z,73.40
2018-05-03T05:50:46.678Z,74.50
2018-05-03T05:53:20.353Z,73.80
2018-05-03T05:55:54.095Z,74.20
2018-05-03T05:58:28.052Z,73.80
2018-05-03T06:01:01.773Z,73.80
2018-05-03T06:03:36.330Z,73.00
2018-05-03T06:06:10.009Z,73.00
2018-05-03T06:08:43.666Z,74.00
2018-05-03T06:11:17.436Z,74.30
2018-05-03T06:13:51.507Z,73.60
2018-05-03T06:16:25.410Z,73.40
2018-05-03T06:18:59.305Z,73.20
2018-05-03T06:21:33.868Z,73.00
2018-05-03T06:24:07.789Z,73.10
2018-05-03T06:26:42.435Z,74.20
2018-05-03T06:29:17.795Z,74.80
2018-05-03T06:31:51.526Z,74.80
2018-05-03T06:34:25.116Z,74.80
2018-05-03T06:36:58.897Z,74.60
2018-05-03T06:39:32.673Z,73.30
2018-05-03T06:42:06.489Z,73.50
2018-05-03T06:44:40.289Z,75.10
2018-05-03T06:47:14.101Z,74.40
2018-05-03T06:49:47.920Z,73.10
2018-05-03T06:52:21.751Z,74.30
2018-05-03T06:54:55.400Z,73.40
2018-05-03T06:57:29.000Z,72.00
2018-05-03T07:00:03.613Z,74.00
2018-05-03T07:02:37.511Z,73.80
2018-05-03T07:05:11.135Z,73.90
2018-05-03T07:07:45.739Z,74.40
2018-05-03T07:10:19.421Z,74.30
2018-05-03T07:12:53.358Z,73.90
2018-05-03T07:15:27.304Z,74.60
2018-05-03T07:18:01.100Z,74.90
2018-05-03T07:20:34.777Z,72.90
2018-05-03T07:23:09.342Z,72.80
2018-05-03T07:25:43.146Z,72.80
2018-05-03T07:28:16.896Z,73.20
2018-05-03T07:30:51.473Z,72.20
2018-05-03T07:33:25.203Z,72.10
2018-05-03T07:35:59.035Z,72.50
2018-05-03T07:38:33.595Z,71.80
2018-05-03T07:41:07.491Z,71.70
2018-05-03T07:43:42.057Z,72.80
2018-05-03T07:46:15.754Z,72.80
2018-05-03T07:48:49.598Z,72.60
2018-05-03T07:51:23.351Z,70.60
2018-05-03T07:53:57.068Z,70.40
2018-05-03T07:56:31.658Z,69.40
2018-05-03T07:59:06.208Z,69.90
2018-05-03T08:01:40.833Z,65.00
2018-05-03T08:04:14.728Z,65.00
2018-05-03T08:06:50.044Z,65.70
2018-05-03T08:09:23.923Z,65.70
2018-05-03T08:11:57.685Z,67.20
2018-05-03T08:14:31.339Z,69.70
2018-05-03T08:17:05.941Z,69.80
2018-05-03T08:19:39.716Z,69.80
2018-05-03T08:22:13.313Z,65.20
2018-05-03T08:24:47.164Z,67.50
2018-05-03T08:27:20.932Z,67.60
2018-05-03T08:29:54.738Z,67.10
2018-05-03T08:32:29.500Z,67.50
2018-05-03T08:35:03.188Z,68.40
2018-05-03T08:37:36.953Z,68.30
2018-05-03T08:40:10.611Z,71.30
2018-05-03T08:42:44.435Z,67.90
2018-05-03T08:45:18.170Z,66.50
2018-05-03T08:47:51.975Z,67.50
2018-05-03T08:50:25.581Z,66.60
2018-05-03T08:52:59.325Z,66.80
2018-05-03T08:55:32.993Z,66.50
2018-05-03T08:58:06.837Z,65.40
2018-05-03T09:00:40.701Z,64.30
2018-05-03T09:03:15.292Z,67.00
2018-05-03T09:05:49.118Z,66.50
2018-05-03T09:08:22.963Z,66.00
2018-05-03T09:10:57.385Z,63.00
2018-05-03T09:13:31.069Z,63.00
2018-05-03T09:16:04.702Z,60.20
2018-05-03T09:18:38.568Z,61.20
2018-05-03T09:21:12.450Z,59.60
2018-05-03T09:23:46.361Z,60.90
2018-05-03T09:26:20.067Z,60.90
2018-05-03T09:28:54.464Z,59.60
2018-05-03T09:31:28.157Z,59.60
2018-05-03T09:34:03.272Z,60.40
2018-05-03T09:36:37.665Z,59.70
2018-05-03T09:39:11.334Z,59.80
2018-05-03T09:41:45.916Z,60.20
2018-05-03T09:44:19.657Z,60.10
2018-05-03T09:46:53.529Z,59.70
2018-05-03T09:49:27.422Z,60.80
2018-05-03T09:52:01.112Z,61.40
2018-05-03T09:54:34.828Z,61.20
2018-05-03T09:57:08.492Z,62.40
2018-05-03T09:59:43.081Z,61.40
2018-05-03T10:02:16.782Z,61.40
2018-05-03T10:04:50.726Z,61.50
2018-05-03T10:07:24.465Z,60.60
2018-05-03T10:09:58.296Z,60.10
2018-05-03T10:12:32.801Z,60.40
2018-05-03T10:15:06.417Z,60.40
2018-05-03T10:17:40.258Z,60.00
2018-05-03T10:20:14.158Z,60.10
2018-05-03T10:22:48.553Z,62.20
2018-05-03T10:25:22.476Z,62.20
2018-05-03T10:27:56.135Z,61.40
2018-05-03T10:30:30.054Z,61.80
2018-05-03T10:33:04.690Z,62.00
2018-05-03T10:35:39.262Z,61.70
2018-05-03T10:38:13.695Z,63.10
2018-05-03T10:40:48.131Z,62.60
2018-05-03T10:43:21.827Z,62.60
2018-05-03T10:45:55.548Z,61.50
2018-05-03T10:48:32.923Z,63.80
2018-05-03T10:51:06.798Z,63.30
2018-05-03T10:53:41.353Z,64.00
2018-05-03T10:56:15.147Z,64.00
2018-05-03T10:58:48.911Z,63.30
2018-05-03T11:01:22.724Z,62.80
2018-05-03T11:03:56.580Z,64.90
2018-05-03T11:06:30.352Z,63.50
2018-05-03T11:09:04.113Z,63.50
2018-05-03T11:11:38.075Z,64.20
2018-05-03T11:14:11.649Z,63.60
2018-05-03T11:16:45.535Z,64.30
2018-05-03T11:19:19.249Z,63.90
2018-05-03T11:21:53.776Z,65.60
2018-05-03T11:24:28.274Z,65.00
2018-05-03T11:27:02.815Z,64.70
2018-05-03T11:29:37.562Z,63.60
2018-05-03T11:34:33.969Z,64.40
2018-05-03T11:37:08.519Z,62.70
2018-05-03T11:39:42.164Z,62.60
2018-05-03T11:42:16.120Z,62.90
2018-05-03T11:44:50.713Z,61.80
2018-05-03T11:47:25.212Z,61.40
2018-05-03T11:49:58.896Z,61.40
2018-05-03T11:52:32.747Z,61.70
2018-05-03T11:55:06.621Z,59.10
2018-05-03T11:57:40.435Z,58.90
2018-05-03T12:00:14.985Z,57.20
2018-05-03T12:02:48.864Z,57.10
2018-05-03T12:05:22.569Z,56.60
2018-05-03T12:07:56.436Z,55.90
2018-05-03T12:10:31.002Z,55.50
2018-05-03T12:13:05.591Z,56.60
2018-05-03T12:15:39.349Z,56.60
2018-05-03T12:18:13.184Z,56.80
2018-05-03T12:20:47.872Z,55.40
2018-05-03T12:23:21.528Z,55.30
2018-05-03T12:25:55.383Z,55.40
2018-05-03T12:28:29.294Z,55.50
2018-05-03T12:31:02.912Z,56.60
2018-05-03T12:33:37.463Z,57.30
2018-05-03T12:36:11.289Z,57.20
2018-05-03T12:38:45.704Z,56.50
2018-05-03T12:41:20.281Z,55.60
2018-05-03T12:43:54.129Z,55.60
2018-05-03T12:46:27.977Z,55.90
2018-05-03T12:49:02.629Z,55.40
2018-05-03T12:51:36.348Z,54.90
2018-05-03T12:54:10.256Z,55.40
2018-05-03T12:56:44.725Z,54.40
2018-05-03T12:59:18.302Z,54.40
2018-05-03T13:01:52.101Z,54.40
2018-05-03T13:04:26.740Z,54.30
2018-05-03T13:07:01.351Z,54.50
2018-05-03T13:09:35.050Z,54.50
2018-05-03T13:12:09.636Z,54.00
2018-05-03T13:14:43.411Z,54.00
2018-05-03T13:17:17.224Z,53.20
2018-05-03T13:19:50.996Z,52.60
2018-05-03T13:22:25.580Z,53.70
2018-05-03T13:24:59.303Z,53.50
2018-05-03T13:27:33.114Z,53.30
2018-05-03T13:30:06.876Z,53.40
2018-05-03T13:32:40.542Z,52.40
2018-05-03T13:35:14.352Z,53.60
2018-05-03T13:37:48.783Z,53.60
2018-05-03T13:40:23.392Z,54.10
2018-05-03T13:42:57.208Z,54.20
2018-05-03T13:45:30.999Z,54.40
2018-05-03T13:48:05.609Z,53.20
2018-05-03T13:50:39.339Z,53.20
2018-05-03T13:53:13.157Z,53.20
2018-05-03T13:55:47.772Z,53.30
2018-05-03T13:58:21.623Z,53.30
2018-05-03T14:00:56.043Z,54.10
2018-05-03T14:03:30.636Z,54.20
2018-05-03T14:06:05.169Z,54.60
2018-05-03T14:08:38.823Z,54.60
2018-05-03T14:11:12.526Z,55.00
2018-05-03T14:13:46.336Z,55.10
2018-05-03T14:16:20.253Z,55.50
2018-05-03T14:18:54.100Z,55.60
2018-05-03T14:21:28.100Z,55.00
2018-05-03T14:24:01.847Z,55.20
2018-05-03T14:26:36.097Z,54.20
2018-05-03T14:29:09.980Z,53.60
2018-05-03T14:31:44.524Z,53.20
2018-05-03T14:34:18.242Z,53.20
2018-05-03T14:36:51.983Z,53.40
2018-05-03T14:39:25.760Z,54.10
2018-05-03T14:41:59.420Z,53.70
2018-05-03T14:44:33.037Z,53.20
2018-05-03T14:47:07.830Z,51.90
2018-05-03T14:49:41.624Z,52.20
2018-05-03T14:52:15.340Z,52.40
2018-05-03T14:54:49.243Z,52.70
2018-05-03T14:57:23.094Z,53.00
2018-05-03T14:59:56.860Z,53.20
2018-05-03T15:02:30.600Z,53.30
2018-05-03T15:05:05.156Z,53.80
2018-05-03T15:07:39.017Z,53.80
2018-05-03T15:10:12.795Z,54.30
2018-05-03T15:12:47.446Z,53.70
2018-05-03T15:15:21.133Z,53.70
2018-05-03T15:17:55.737Z,53.60
2018-05-03T15:20:29.480Z,53.60
2018-05-03T15:23:03.232Z,53.20
2018-05-03T15:25:37.809Z,52.20
2018-05-03T15:28:11.468Z,52.10
2018-05-03T15:30:45.170Z,52.40
2018-05-03T15:33:19.655Z,53.20
2018-05-03T15:35:53.418Z,53.10
2018-05-03T15:38:28.002Z,52.90
2018-05-03T15:41:02.624Z,53.00
2018-05-03T15:43:36.444Z,52.90
2018-05-03T15:46:10.573Z,52.40
2018-05-03T15:48:44.353Z,52.70
2018-05-03T15:51:18.200Z,52.90
2018-05-03T15:53:52.793Z,53.00
2018-05-03T15:56:26.436Z,53.00
2018-05-03T15:59:01.565Z,53.40
2018-05-03T16:01:35.264Z,53.40
2018-05-03T16:04:09.892Z,54.00
2018-05-03T16:06:43.540Z,54.00
2018-05-03T16:09:18.246Z,53.70
2018-05-03T16:11:51.860Z,53.60
2018-05-03T16:14:26.504Z,54.30
2018-05-03T16:17:01.678Z,54.20
2018-05-03T16:19:35.388Z,54.10
2018-05-03T16:22:09.087Z,53.60
2018-05-03T16:24:43.684Z,54.10
2018-05-03T16:27:17.512Z,54.20
2018-05-03T16:29:51.316Z,54.70
2018-05-03T16:32:26.019Z,53.70
2018-05-03T16:35:01.251Z,53.10
2018-05-03T16:37:35.885Z,53.00
2018-05-03T16:40:09.721Z,53.00
2018-05-03T16:42:43.513Z,52.80
2018-05-03T16:45:17.216Z,53.20
2018-05-03T16:47:51.053Z,54.20
2018-05-03T16:50:24.913Z,54.00
2018-05-03T16:52:58.748Z,54.20
2018-05-03T16:55:32.524Z,54.40
2018-05-03T16:58:06.228Z,54.60
2018-05-03T17:00:41.143Z,53.90
2018-05-03T17:03:14.988Z,53.90
2018-05-03T17:05:48.739Z,54.50
2018-05-03T17:08:22.610Z,55.10
2018-05-03T17:10:57.293Z,55.40
2018-05-03T17:13:31.027Z,55.30
2018-05-03T17:16:04.873Z,54.40
2018-05-03T17:18:39.611Z,54.70
2018-05-03T17:21:13.366Z,54.70
2018-05-03T17:23:46.984Z,55.00
2018-05-03T17:26:20.780Z,55.10
2018-05-03T17:28:55.600Z,55.50
2018-05-03T17:31:29.421Z,56.20
2018-05-03T17:34:03.427Z,56.40
2018-05-03T17:36:37.169Z,56.70
2018-05-03T17:39:11.025Z,56.90
2018-05-03T17:41:45.502Z,56.90
2018-05-03T17:44:19.301Z,56.90
2018-05-03T17:46:53.881Z,57.50
2018-05-03T17:49:27.693Z,57.50
2018-05-03T17:52:01.576Z,58.10
2018-05-03T17:54:35.358Z,57.50
2018-05-03T17:57:10.018Z,57.50
2018-05-03T17:59:43.760Z,57.50
2018-05-03T18:02:17.582Z,57.20
2018-05-03T18:04:51.379Z,57.60
2018-05-03T18:07:25.039Z,57.90
2018-05-03T18:09:58.857Z,58.50
2018-05-03T18:12:33.495Z,57.70
2018-05-03T18:15:08.109Z,58.30
2018-05-03T18:17:41.888Z,58.30
2018-05-03T18:20:15.650Z,58.40
2018-05-03T18:22:49.426Z,58.60
2018-05-03T18:25:23.241Z,58.70
2018-05-03T18:27:57.433Z,59.30
2018-05-03T18:30:31.284Z,59.10
2018-05-03T18:33:05.926Z,59.90
2018-05-03T18:35:40.355Z,61.00
2018-05-03T18:38:14.131Z,60.30
2018-05-03T18:40:48.602Z,61.10
2018-05-03T18:43:22.601Z,61.10
2018-05-03T18:45:56.396Z,62.70
2018-05-03T18:48:30.125Z,62.40
2018-05-03T18:51:04.754Z,62.50
2018-05-03T18:53:38.685Z,62.30
2018-05-03T18:56:12.455Z,62.50
2018-05-03T18:58:46.203Z,62.10
2018-05-03T19:01:20.030Z,62.60
2018-05-03T19:03:53.860Z,62.80
2018-05-03T19:06:28.388Z,63.30
2018-05-03T19:09:02.034Z,63.30
2018-05-03T19:11:36.046Z,63.70
2018-05-03T19:14:10.989Z,63.90
2018-05-03T19:16:45.528Z,63.60
2018-05-03T19:19:19.187Z,63.60
2018-05-03T19:21:52.996Z,64.00
2018-05-03T19:24:26.685Z,64.20
2018-05-03T19:27:01.319Z,65.50
2018-05-03T19:29:35.841Z,66.40
2018-05-03T19:32:09.761Z,66.20
2018-05-03T19:34:43.354Z,66.20
2018-05-03T19:37:17.173Z,66.70
2018-05-03T19:39:50.945Z,68.00
2018-05-03T19:42:24.820Z,67.60
2018-05-03T19:44:58.632Z,67.90
2018-05-03T19:47:33.204Z,68.30
2018-05-03T19:50:07.072Z,68.20
2018-05-03T19:52:40.921Z,68.70
2018-05-03T19:55:14.701Z,69.20
2018-05-03T19:57:48.464Z,69.20
2018-05-03T20:00:23.040Z,70.10
2018-05-03T20:02:57.572Z,69.40
2018-05-03T20:05:31.437Z,69.30
2018-05-03T20:08:05.122Z,70.00
2018-05-03T20:10:39.688Z,70.40
2018-05-03T20:13:13.429Z,70.40
2018-05-03T20:15:47.277Z,70.80
2018-05-03T20:18:21.028Z,70.90
2018-05-03T20:20:54.625Z,71.20
2018-05-03T20:23:28.403Z,71.40
2018-05-03T20:26:02.271Z,71.30
2018-05-03T20:28:35.913Z,71.90
2018-05-03T20:31:10.552Z,73.00
2018-05-03T20:33:44.409Z,72.90
2018-05-03T20:36:18.249Z,72.90
2018-05-03T20:38:52.059Z,73.10
2018-05-03T20:41:26.504Z,73.60
2018-05-03T20:44:00.373Z,73.60
2018-05-03T20:46:34.955Z,74.40
2018-05-03T20:49:08.752Z,74.40
2018-05-03T20:51:43.357Z,75.30
2018-05-03T20:54:17.119Z,75.30
2018-05-03T20:56:50.936Z,75.60
2018-05-03T20:59:25.581Z,76.40
2018-05-03T21:01:59.355Z,76.30
2018-05-03T21:04:34.004Z,76.20
2018-05-03T21:07:08.606Z,76.30
2018-05-03T21:09:43.065Z,76.20
2018-05-03T21:12:17.617Z,77.00
2018-05-03T21:14:51.461Z,76.30
2018-05-03T21:17:25.281Z,76.80
2018-05-03T21:19:59.168Z,76.50
2018-05-03T21:22:32.939Z,77.60
2018-05-03T21:25:07.005Z,78.00
2018-05-03T21:27:41.544Z,77.60
2018-05-03T21:30:15.225Z,77.60
2018-05-03T21:32:48.992Z,77.80
2018-05-03T21:35:22.830Z,78.00
2018-05-03T21:37:56.584Z,77.90
2018-05-03T21:40:31.223Z,78.00
2018-05-03T21:43:04.993Z,78.00
2018-05-03T21:45:38.721Z,78.50
2018-05-03T21:48:12.563Z,79.20
2018-05-03T21:50:47.049Z,80.00
2018-05-03T21:53:20.777Z,80.00
2018-05-03T21:55:55.401Z,80.10
2018-05-03T21:58:29.784Z,80.30
2018-05-03T22:01:03.536Z,80.20
2018-05-03T22:03:37.365Z,80.50
2018-05-03T22:06:11.243Z,81.10
2018-05-03T22:08:44.912Z,81.60
2018-05-03T22:11:19.526Z,82.50
2018-05-03T22:13:53.409Z,82.60
2018-05-03T22:16:27.150Z,82.80
2018-05-03T22:19:01.992Z,82.80
2018-05-03T22:21:35.900Z,82.80
2018-05-03T22:24:10.495Z,83.30
2018-05-03T22:26:44.377Z,83.20
2018-05-03T22:29:18.183Z,83.60
2018-05-03T22:31:51.855Z,83.40
2018-05-03T22:34:25.681Z,83.70
2018-05-03T22:37:00.283Z,84.00
2018-05-03T22:39:33.971Z,84.00
2018-05-03T22:42:07.624Z,84.30
2018-05-03T22:44:41.502Z,84.80
2018-05-03T22:47:15.223Z,84.90
2018-05-03T22:49:49.101Z,85.10
2018-05-03T22:52:23.816Z,85.30
2018-05-03T22:54:58.283Z,85.30
2018-05-03T22:57:31.959Z,85.30
2018-05-03T23:00:05.777Z,84.90
2018-05-03T23:02:39.388Z,85.20
2018-05-03T23:05:13.180Z,85.20
2018-05-03T23:07:47.805Z,85.60
2018-05-03T23:10:21.375Z,85.60
2018-05-03T23:12:55.249Z,86.20
2018-05-03T23:15:29.116Z,86.40
2018-05-03T23:18:02.924Z,86.60
2018-05-03T23:20:36.702Z,86.90
2018-05-03T23:23:10.557Z,86.90
2018-05-03T23:25:44.430Z,87.00
2018-05-03T23:28:19.002Z,87.00
2018-05-03T23:30:53.502Z,87.20
2018-05-03T23:33:27.235Z,87.20
2018-05-03T23:36:01.015Z,87.30
2018-05-03T23:38:34.845Z,87.30
2018-05-03T23:41:09.425Z,87.60
2018-05-03T23:43:43.114Z,87.50
2018-05-03T23:46:16.964Z,87.80
2018-05-03T23:48:51.557Z,87.80
2018-05-03T23:51:25.334Z,87.60
2018-05-03T23:53:59.295Z,87.40
2018-05-03T23:56:33.042Z,87.70
2018-05-03T23:59:06.781Z,87.80
